createdAt,value
2019-05-29T00:04:46.067Z,8.60
2019-05-29T00:08:44.528Z,8.60
2019-05-29T00:12:43.004Z,8.50
2019-05-29T00:16:43.885Z,8.50
2019-05-29T00:21:03.556Z,8.40
2019-05-29T00:25:02.083Z,8.40
2019-05-29T00:29:00.634Z,8.30
2019-05-29T00:32:59.392Z,8.20
2019-05-29T00:36:58.090Z,8.10
2019-05-29T00:40:58.766Z,8.10
2019-05-29T00:44:57.235Z,8.00
2019-05-29T00:49:01.423Z,8.00
2019-05-29T00:53:00.555Z,7.90
2019-05-29T00:56:59.041Z,7.80
2019-05-29T01:00:57.633Z,7.80
2019-05-29T01:04:56.297Z,7.80
2019-05-29T01:08:59.663Z,7.80
2019-05-29T01:13:00.919Z,7.70
2019-05-29T01:17:02.412Z,7.70
2019-05-29T01:21:01.610Z,7.60
2019-05-29T01:25:00.144Z,7.40
2019-05-29T01:29:04.766Z,7.30
2019-05-29T01:33:07.376Z,7.20
2019-05-29T01:37:05.829Z,7.00
2019-05-29T01:41:04.829Z,6.90
2019-05-29T01:45:08.057Z,6.90
2019-05-29T01:49:04.658Z,6.80
2019-05-29T01:53:10.455Z,6.70
2019-05-29T01:57:09.630Z,6.70
2019-05-29T02:01:13.721Z,6.70
2019-05-29T02:05:15.927Z,6.60
2019-05-29T02:09:17.996Z,6.60
2019-05-29T02:13:21.388Z,6.60
2019-05-29T02:17:20.270Z,6.60
2019-05-29T02:21:20.051Z,6.50
2019-05-29T02:25:22.775Z,6.40
2019-05-29T02:29:24.882Z,6.40
2019-05-29T02:33:29.113Z,6.30
2019-05-29T02:37:33.101Z,6.20
2019-05-29T02:41:32.506Z,6.20
2019-05-29T02:45:52.959Z,6.00
2019-05-29T02:49:32.571Z,6.00
2019-05-29T02:53:31.936Z,5.90
2019-05-29T02:57:32.629Z,5.90
2019-05-29T03:01:36.172Z,5.80
2019-05-29T03:05:35.745Z,5.80
2019-05-29T03:09:34.649Z,5.70
2019-05-29T03:13:33.825Z,5.60
2019-05-29T03:17:33.839Z,5.60
2019-05-29T03:21:34.587Z,5.60
2019-05-29T03:25:32.943Z,5.50
2019-05-29T03:29:31.936Z,5.40
2019-05-29T03:33:38.379Z,5.40
2019-05-29T03:37:32.463Z,5.30
2019-05-29T03:41:40.911Z,5.30
2019-05-29T03:45:38.878Z,5.30
2019-05-29T03:49:39.539Z,5.30
2019-05-29T03:53:41.764Z,5.30
2019-05-29T03:57:44.281Z,5.20
2019-05-29T04:01:45.942Z,5.20
2019-05-29T04:05:44.537Z,5.20
2019-05-29T04:09:43.064Z,5.20
2019-05-29T04:13:41.866Z,5.30
2019-05-29T04:17:41.169Z,5.30
2019-05-29T04:21:41.494Z,5.30
2019-05-29T04:25:46.282Z,5.40
2019-05-29T04:29:49.076Z,5.40
2019-05-29T04:33:55.547Z,5.40
2019-05-29T04:37:54.142Z,5.40
2019-05-29T04:41:52.880Z,5.50
2019-05-29T04:45:51.393Z,5.60
2019-05-29T04:49:49.841Z,5.60
2019-05-29T04:53:50.196Z,5.80
2019-05-29T04:57:50.979Z,5.90
2019-05-29T05:01:49.130Z,6.00
2019-05-29T05:05:49.922Z,6.20
2019-05-29T05:09:48.731Z,6.40
2019-05-29T05:13:48.554Z,6.50
2019-05-29T05:17:47.809Z,6.70
2019-05-29T05:21:50.801Z,6.90
2019-05-29T05:25:49.049Z,7.00
2019-05-29T05:33:51.655Z,7.20
2019-05-29T05:37:50.115Z,7.30
2019-05-29T05:41:48.650Z,7.50
2019-05-29T05:45:47.186Z,7.60
2019-05-29T05:49:50.230Z,7.80
2019-05-29T05:53:48.734Z,8.00
2019-05-29T05:58:15.171Z,8.20
2019-05-29T06:02:13.605Z,8.50
2019-05-29T06:06:12.293Z,8.70
2019-05-29T06:10:11.116Z,8.90
2019-05-29T06:14:09.587Z,9.10
2019-05-29T06:18:20.957Z,9.30
2019-05-29T06:22:11.809Z,9.60
2019-05-29T06:26:10.298Z,9.70
2019-05-29T06:30:09.768Z,9.80
2019-05-29T06:34:13.340Z,9.90
2019-05-29T06:38:14.376Z,10.00
2019-05-29T06:42:33.512Z,10.10
2019-05-29T06:46:32.250Z,10.20
2019-05-29T06:50:33.243Z,10.40
2019-05-29T06:54:33.895Z,10.60
2019-05-29T06:58:35.799Z,10.70
2019-05-29T07:02:34.643Z,10.80
2019-05-29T07:06:33.110Z,10.90
2019-05-29T07:10:42.646Z,10.90
2019-05-29T07:14:40.238Z,11.00
2019-05-29T07:18:41.202Z,11.20
2019-05-29T07:22:40.900Z,11.50
2019-05-29T07:26:51.670Z,11.60
2019-05-29T07:31:02.653Z,11.60
2019-05-29T07:35:13.282Z,11.80
2019-05-29T07:39:08.621Z,12.20
2019-05-29T07:43:10.577Z,12.40
2019-05-29T07:47:10.049Z,12.50
2019-05-29T07:51:21.937Z,12.70
2019-05-29T07:55:39.000Z,12.90
2019-05-29T07:59:30.830Z,13.00
2019-05-29T08:03:32.868Z,13.00
2019-05-29T08:07:33.961Z,12.90
2019-05-29T08:11:39.394Z,12.80
2019-05-29T08:15:52.106Z,12.80
2019-05-29T08:19:37.075Z,13.20
2019-05-29T08:23:35.615Z,13.30
2019-05-29T08:27:34.429Z,13.50
2019-05-29T08:31:39.115Z,13.40
2019-05-29T08:35:57.212Z,13.40
2019-05-29T08:39:45.876Z,13.30
2019-05-29T08:43:48.371Z,13.30
2019-05-29T08:47:47.733Z,13.40
2019-05-29T08:51:46.354Z,13.50
2019-05-29T08:55:46.113Z,13.60
2019-05-29T08:59:48.738Z,13.80
2019-05-29T09:04:20.519Z,13.90
2019-05-29T09:08:14.067Z,14.00
2019-05-29T09:12:13.142Z,14.10
2019-05-29T09:16:18.632Z,14.10
2019-05-29T09:20:34.153Z,14.10
2019-05-29T09:24:20.942Z,14.30
2019-05-29T09:28:31.847Z,14.50
2019-05-29T09:32:48.316Z,14.50
2019-05-29T09:36:35.321Z,14.60
2019-05-29T09:40:41.050Z,14.80
2019-05-29T09:44:48.546Z,14.90
2019-05-29T09:49:05.304Z,15.00
2019-05-29T09:53:06.641Z,14.90
2019-05-29T09:57:14.606Z,14.80
2019-05-29T10:01:23.855Z,14.80
2019-05-29T10:05:20.185Z,14.90
2019-05-29T10:09:23.726Z,15.00
2019-05-29T10:13:22.386Z,15.10
2019-05-29T10:17:20.920Z,15.20
2019-05-29T10:21:39.084Z,15.40
2019-05-29T10:25:25.228Z,15.40
2019-05-29T10:29:26.223Z,15.50
2019-05-29T10:33:27.827Z,15.50
2019-05-29T10:37:26.293Z,15.60
2019-05-29T10:41:32.991Z,15.60
2019-05-29T10:45:33.680Z,15.50
2019-05-29T10:49:35.116Z,15.80
2019-05-29T10:53:37.113Z,15.90
2019-05-29T10:57:44.614Z,16.00
2019-05-29T11:01:41.875Z,16.20
2019-05-29T11:05:49.555Z,16.20
2019-05-29T11:09:48.551Z,16.20
2019-05-29T11:13:48.533Z,16.30
2019-05-29T11:17:58.990Z,16.40
2019-05-29T11:22:24.801Z,16.70
2019-05-29T11:26:06.278Z,16.90
2019-05-29T11:30:13.588Z,17.00
2019-05-29T11:34:13.100Z,17.10
2019-05-29T11:38:11.700Z,17.30
2019-05-29T11:42:24.210Z,17.30
2019-05-29T11:46:13.702Z,17.20
2019-05-29T11:50:19.920Z,17.40
2019-05-29T11:54:20.384Z,17.70
2019-05-29T11:58:31.519Z,18.00
2019-05-29T12:02:29.278Z,18.00
2019-05-29T12:06:28.388Z,18.30
2019-05-29T12:10:26.883Z,18.30
2019-05-29T12:14:25.454Z,18.30
2019-05-29T12:18:24.814Z,18.60
2019-05-29T12:22:25.524Z,18.80
2019-05-29T12:26:31.964Z,18.80
2019-05-29T12:30:38.848Z,18.90
2019-05-29T12:34:50.835Z,19.20
2019-05-29T12:38:57.641Z,19.20
2019-05-29T12:43:05.973Z,19.40
2019-05-29T12:47:05.982Z,19.50
2019-05-29T12:51:18.574Z,19.60
2019-05-29T12:55:34.058Z,20.00
2019-05-29T12:59:40.041Z,19.90
2019-05-29T13:03:40.373Z,19.40
2019-05-29T13:07:41.289Z,18.80
2019-05-29T13:11:41.793Z,18.70
2019-05-29T13:15:56.692Z,19.70
2019-05-29T13:19:59.392Z,20.50
2019-05-29T13:24:02.287Z,20.80
2019-05-29T13:28:06.227Z,20.40
2019-05-29T13:32:07.571Z,20.30
2019-05-29T13:36:07.925Z,20.50
2019-05-29T13:40:08.518Z,21.10
2019-05-29T13:44:16.020Z,21.10
2019-05-29T13:48:18.789Z,20.50
2019-05-29T13:52:21.741Z,20.20
2019-05-29T13:56:24.328Z,20.50
2019-05-29T14:00:33.044Z,21.60
2019-05-29T14:04:25.217Z,22.20
2019-05-29T14:08:26.315Z,24.00
2019-05-29T14:12:26.709Z,28.70
2019-05-29T14:16:25.236Z,30.00
2019-05-29T14:20:23.886Z,26.60
2019-05-29T14:24:29.210Z,23.80
2019-05-29T14:28:26.166Z,22.70
2019-05-29T14:32:51.971Z,22.00
2019-05-29T14:37:04.192Z,21.30
2019-05-29T14:41:03.548Z,21.20
2019-05-29T14:45:06.118Z,24.30
2019-05-29T14:49:12.080Z,30.00
2019-05-29T14:53:11.461Z,33.10
2019-05-29T14:57:22.629Z,34.10
2019-05-29T15:01:13.378Z,33.00
2019-05-29T15:05:20.555Z,28.50
2019-05-29T15:09:20.640Z,30.10
2019-05-29T15:13:19.270Z,32.50
2019-05-29T15:17:33.265Z,33.60
2019-05-29T15:21:40.396Z,34.00
2019-05-29T15:25:36.711Z,34.40
2019-05-29T15:29:42.042Z,30.60
2019-05-29T15:33:38.036Z,28.60
2019-05-29T15:37:36.511Z,25.10
2019-05-29T15:41:41.237Z,27.40
2019-05-29T15:45:39.258Z,32.20
2019-05-29T15:49:40.613Z,33.50
2019-05-29T15:53:42.114Z,30.40
2019-05-29T15:57:40.990Z,28.20
2019-05-29T16:01:47.699Z,25.00
2019-05-29T16:06:11.814Z,22.70
2019-05-29T16:10:16.260Z,23.70
2019-05-29T16:14:12.934Z,29.40
2019-05-29T16:18:21.778Z,33.10
2019-05-29T16:22:12.240Z,35.10
2019-05-29T16:26:11.122Z,35.40
2019-05-29T16:30:11.396Z,35.80
2019-05-29T16:34:14.768Z,35.90
2019-05-29T16:38:14.255Z,35.10
2019-05-29T16:42:18.205Z,35.40
2019-05-29T16:46:42.572Z,35.20
2019-05-29T16:50:23.124Z,34.80
2019-05-29T16:54:23.933Z,33.80
2019-05-29T16:58:23.220Z,34.50
2019-05-29T17:02:23.842Z,34.70
2019-05-29T17:06:22.486Z,35.10
2019-05-29T17:10:31.505Z,35.20
2019-05-29T17:14:36.888Z,32.60
2019-05-29T17:18:35.430Z,29.80
2019-05-29T17:22:44.341Z,28.40
2019-05-29T17:27:01.033Z,25.50
2019-05-29T17:31:02.308Z,22.80
2019-05-29T17:35:02.968Z,21.10
2019-05-29T17:39:08.444Z,20.10
2019-05-29T17:43:07.753Z,19.30
2019-05-29T17:47:06.544Z,18.80
2019-05-29T17:51:05.449Z,18.50
2019-05-29T17:55:06.397Z,18.30
2019-05-29T17:59:26.299Z,18.10
2019-05-29T18:03:26.356Z,17.90
2019-05-29T18:07:30.209Z,17.70
2019-05-29T18:11:29.073Z,17.70
2019-05-29T18:15:28.542Z,17.50
2019-05-29T18:19:29.844Z,17.20
2019-05-29T18:23:35.732Z,17.10
2019-05-29T18:27:34.704Z,17.00
2019-05-29T18:31:34.137Z,16.90
2019-05-29T18:35:34.050Z,16.70
2019-05-29T18:39:34.369Z,16.60
2019-05-29T18:43:36.553Z,16.40
2019-05-29T18:47:37.983Z,16.30
2019-05-29T18:51:38.355Z,16.30
2019-05-29T18:55:49.501Z,16.30
2019-05-29T18:59:50.360Z,16.40
2019-05-29T19:03:49.303Z,16.40
2019-05-29T19:07:53.799Z,16.30
2019-05-29T19:11:54.905Z,16.40
2019-05-29T19:16:04.655Z,16.10
2019-05-29T19:20:03.624Z,15.60
2019-05-29T19:24:14.195Z,15.20
2019-05-29T19:28:13.207Z,14.90
2019-05-29T19:32:12.915Z,14.70
2019-05-29T19:36:20.351Z,14.60
2019-05-29T19:40:20.989Z,14.30
2019-05-29T19:44:24.642Z,14.00
2019-05-29T19:48:28.818Z,13.90
2019-05-29T19:52:31.269Z,14.00
2019-05-29T19:56:35.986Z,13.90
2019-05-29T20:00:36.307Z,13.80
2019-05-29T20:04:37.576Z,13.70
2019-05-29T20:09:06.503Z,13.50
2019-05-29T20:13:05.648Z,13.50
2019-05-29T20:17:06.441Z,13.30
2019-05-29T20:21:09.009Z,13.30
2019-05-29T20:25:13.851Z,13.20
2019-05-29T20:29:15.589Z,13.20
2019-05-29T20:33:15.459Z,13.10
2019-05-29T20:37:16.122Z,13.00
2019-05-29T20:41:20.398Z,12.80
2019-05-29T20:45:19.052Z,12.60
2019-05-29T20:49:18.062Z,12.50
2019-05-29T20:53:17.010Z,12.50
2019-05-29T20:57:19.288Z,12.40
2019-05-29T21:01:32.152Z,12.40
2019-05-29T21:05:32.473Z,12.30
2019-05-29T21:09:29.899Z,12.20
2019-05-29T21:13:28.866Z,12.10
2019-05-29T21:17:28.067Z,12.10
2019-05-29T21:21:27.019Z,12.20
2019-05-29T21:25:26.016Z,12.40
2019-05-29T21:29:26.937Z,12.40
2019-05-29T21:33:29.220Z,12.30
2019-05-29T21:37:28.124Z,12.40
2019-05-29T21:41:29.873Z,12.30
2019-05-29T21:45:28.450Z,12.40
2019-05-29T21:49:30.445Z,12.30
2019-05-29T21:53:29.412Z,12.10
2019-05-29T21:57:27.896Z,12.00
2019-05-29T22:01:26.720Z,11.80
2019-05-29T22:05:25.255Z,11.60
2019-05-29T22:09:24.711Z,11.50
2019-05-29T22:13:24.818Z,11.40
2019-05-29T22:17:23.363Z,11.20
2019-05-29T22:21:25.178Z,11.20
2019-05-29T22:25:24.210Z,11.20
2019-05-29T22:29:28.729Z,11.30
2019-05-29T22:33:22.979Z,11.30
2019-05-29T22:37:23.375Z,11.30
2019-05-29T22:41:22.410Z,11.20
2019-05-29T22:45:22.401Z,11.00
2019-05-29T22:49:20.882Z,10.90
2019-05-29T22:53:20.876Z,10.90
2019-05-29T22:57:20.127Z,10.90
2019-05-29T23:01:31.825Z,10.80
2019-05-29T23:05:30.386Z,10.70
2019-05-29T23:09:34.491Z,10.50
2019-05-29T23:13:32.954Z,10.60
2019-05-29T23:17:34.590Z,10.60
2019-05-29T23:21:33.118Z,10.50
2019-05-29T23:25:35.139Z,10.40
2019-05-29T23:29:48.371Z,10.50
2019-05-29T23:33:39.030Z,10.60
2019-05-29T23:37:36.846Z,10.60
2019-05-29T23:41:35.294Z,10.50
2019-05-29T23:45:36.839Z,10.50
2019-05-29T23:49:37.222Z,10.50
2019-05-29T23:53:37.907Z,10.60
2019-05-29T23:57:36.467Z,10.80
